createdAt,value
2023-03-26T00:00:59.494Z,11.55
2023-03-26T00:03:33.832Z,11.07
2023-03-26T00:06:24.858Z,19.23
2023-03-26T00:08:56.319Z,12.15
2023-03-26T00:11:25.392Z,12.88
2023-03-26T00:13:52.282Z,16.17
2023-03-26T00:16:22.006Z,14.07
2023-03-26T00:18:58.904Z,15.63
2023-03-26T00:21:46.295Z,11.90
2023-03-26T00:24:13.937Z,13.25
2023-03-26T00:26:49.119Z,14.55
2023-03-26T00:29:16.087Z,13.50
2023-03-26T00:31:42.865Z,13.30
2023-03-26T00:34:20.638Z,12.85
2023-03-26T00:36:58.591Z,11.85
2023-03-26T00:39:47.552Z,12.40
2023-03-26T00:42:17.187Z,9.85
2023-03-26T00:44:49.411Z,12.00
2023-03-26T00:47:16.258Z,14.13
2023-03-26T00:49:42.957Z,13.90
2023-03-26T00:52:15.277Z,11.63
2023-03-26T00:55:00.709Z,10.82
2023-03-26T00:57:35.782Z,11.48
2023-03-26T01:00:07.716Z,13.68
2023-03-26T01:02:39.899Z,15.55
2023-03-26T01:05:34.660Z,12.68
2023-03-26T01:08:18.637Z,15.50
2023-03-26T01:10:46.778Z,12.65
2023-03-26T01:13:23.563Z,9.93
2023-03-26T01:15:51.363Z,12.23
2023-03-26T01:18:22.676Z,13.18
2023-03-26T01:20:51.161Z,16.92
2023-03-26T01:23:24.880Z,14.15
2023-03-26T01:26:02.725Z,9.98
2023-03-26T01:28:35.268Z,10.90
2023-03-26T01:31:24.225Z,20.23
2023-03-26T01:34:18.029Z,10.60
2023-03-26T01:37:09.748Z,14.15
2023-03-26T01:39:46.140Z,11.82
2023-03-26T01:42:22.581Z,15.18
2023-03-26T01:45:20.096Z,14.43
2023-03-26T01:47:51.198Z,15.93
2023-03-26T01:50:17.991Z,11.13
2023-03-26T01:52:47.445Z,13.70
2023-03-26T01:55:14.967Z,14.27
2023-03-26T01:58:20.642Z,11.80
2023-03-26T02:01:05.440Z,18.23
2023-03-26T02:03:53.896Z,15.40
2023-03-26T02:06:32.052Z,17.05
2023-03-26T02:09:11.033Z,20.92
2023-03-26T02:11:40.718Z,16.15
2023-03-26T02:14:13.957Z,16.63
2023-03-26T02:16:40.910Z,17.40
2023-03-26T02:19:14.951Z,17.00
2023-03-26T02:21:42.635Z,19.48
2023-03-26T02:24:14.786Z,18.58
2023-03-26T02:32:10.699Z,18.70
2023-03-26T02:34:38.420Z,21.13
2023-03-26T02:37:10.887Z,17.75
2023-03-26T02:39:42.499Z,21.90
2023-03-26T02:42:11.990Z,21.20
2023-03-26T02:44:38.725Z,17.33
2023-03-26T02:47:11.856Z,23.42
2023-03-26T02:49:40.566Z,19.67
2023-03-26T02:52:16.705Z,22.02
2023-03-26T02:54:46.529Z,20.00
2023-03-26T02:57:23.131Z,18.67
2023-03-26T02:59:58.884Z,19.58
2023-03-26T03:02:31.426Z,19.38
2023-03-26T03:05:08.404Z,20.13
2023-03-26T03:07:36.559Z,24.55
2023-03-26T03:10:03.843Z,19.25
2023-03-26T03:12:31.151Z,26.70
2023-03-26T03:15:13.374Z,20.98
2023-03-26T03:20:21.144Z,19.75
2023-03-26T03:23:00.137Z,18.48
2023-03-26T03:25:42.648Z,21.75
2023-03-26T03:28:21.048Z,22.00
2023-03-26T03:30:56.701Z,25.33
2023-03-26T03:33:35.260Z,21.40
2023-03-26T03:36:03.160Z,19.27
2023-03-26T03:38:41.961Z,19.88
2023-03-26T03:41:28.114Z,20.63
2023-03-26T03:44:04.968Z,21.77
2023-03-26T03:49:26.575Z,20.65
2023-03-26T03:51:56.076Z,22.55
2023-03-26T03:54:27.488Z,22.05
2023-03-26T03:56:54.548Z,21.88
2023-03-26T03:59:21.592Z,21.48
2023-03-26T04:01:49.243Z,20.92
2023-03-26T04:04:16.201Z,20.27
2023-03-26T04:06:46.842Z,20.58
2023-03-26T04:09:15.765Z,23.60
2023-03-26T04:11:52.260Z,20.05
2023-03-26T04:14:27.675Z,21.70
2023-03-26T04:17:09.660Z,24.20
2023-03-26T04:19:42.668Z,23.48
2023-03-26T04:22:15.309Z,22.13
2023-03-26T04:24:42.276Z,22.30
2023-03-26T04:27:21.538Z,23.55
2023-03-26T04:29:51.564Z,26.73
2023-03-26T04:32:32.320Z,24.52
2023-03-26T04:34:59.124Z,21.33
2023-03-26T04:37:46.790Z,22.00
2023-03-26T04:40:24.887Z,24.40
2023-03-26T04:43:11.708Z,25.77
2023-03-26T04:45:38.486Z,21.75
2023-03-26T04:48:18.112Z,25.25
2023-03-26T04:50:56.312Z,26.20
2023-03-26T04:53:39.978Z,26.80
2023-03-26T04:56:44.328Z,22.80
2023-03-26T05:02:48.644Z,23.30
2023-03-26T05:05:16.001Z,25.88
2023-03-26T05:10:26.386Z,23.17
2023-03-26T05:12:58.597Z,24.30
2023-03-26T05:15:34.442Z,23.25
2023-03-26T05:18:03.129Z,26.75
2023-03-26T05:20:37.899Z,24.25
2023-03-26T05:23:07.062Z,21.83
2023-03-26T05:25:40.395Z,29.42
2023-03-26T05:28:13.362Z,25.17
2023-03-26T05:30:54.864Z,24.13
2023-03-26T05:33:30.747Z,24.63
2023-03-26T05:36:08.988Z,23.85
2023-03-26T05:38:40.574Z,22.70
2023-03-26T05:41:09.545Z,21.85
2023-03-26T05:43:40.559Z,21.48
2023-03-26T05:46:08.193Z,18.50
2023-03-26T05:48:43.013Z,18.77
2023-03-26T05:51:09.725Z,21.38
2023-03-26T05:53:36.684Z,19.38
2023-03-26T05:56:13.211Z,17.95
2023-03-26T05:58:39.896Z,21.58
2023-03-26T06:01:12.014Z,20.98
2023-03-26T06:06:17.708Z,23.75
2023-03-26T06:08:48.662Z,23.95
2023-03-26T06:11:35.782Z,23.63
2023-03-26T06:14:02.591Z,18.02
2023-03-26T06:16:29.547Z,16.35
2023-03-26T06:18:58.565Z,19.02
2023-03-26T06:21:29.374Z,19.50
2023-03-26T06:23:57.951Z,21.65
2023-03-26T06:26:24.658Z,17.58
2023-03-26T06:28:59.228Z,21.25
2023-03-26T06:31:27.526Z,20.15
2023-03-26T06:33:54.435Z,17.58
2023-03-26T06:36:21.148Z,18.27
2023-03-26T06:38:47.938Z,17.20
2023-03-26T06:41:27.978Z,19.45
2023-03-26T06:43:57.385Z,23.38
2023-03-26T06:46:33.920Z,18.85
2023-03-26T06:49:00.687Z,15.95
2023-03-26T06:51:32.351Z,14.90
2023-03-26T06:53:59.160Z,17.50
2023-03-26T06:56:34.315Z,17.85
2023-03-26T06:59:02.473Z,15.63
2023-03-26T07:01:45.846Z,15.05
2023-03-26T07:04:20.464Z,18.98
2023-03-26T07:06:57.843Z,19.40
2023-03-26T07:09:27.484Z,17.10
2023-03-26T07:11:54.308Z,13.55
2023-03-26T07:14:37.382Z,16.00
2023-03-26T07:17:15.786Z,16.95
2023-03-26T07:19:48.636Z,18.23
2023-03-26T07:22:22.522Z,18.98
2023-03-26T07:24:53.260Z,13.15
2023-03-26T07:27:44.376Z,13.77
2023-03-26T07:30:47.303Z,14.80
2023-03-26T07:34:13.127Z,16.67
2023-03-26T07:37:23.030Z,15.38
2023-03-26T07:40:05.484Z,21.33
2023-03-26T07:43:04.333Z,23.23
2023-03-26T07:45:36.484Z,18.55
2023-03-26T07:48:03.563Z,18.88
2023-03-26T07:50:30.407Z,23.83
2023-03-26T07:55:30.139Z,18.15
2023-03-26T07:58:18.360Z,20.77
2023-03-26T08:01:02.148Z,19.67
2023-03-26T08:03:37.845Z,23.45
2023-03-26T08:06:44.940Z,16.50
2023-03-26T08:09:31.818Z,20.92
2023-03-26T08:12:23.756Z,20.27
2023-03-26T08:20:50.136Z,17.55
2023-03-26T08:23:50.396Z,21.25
2023-03-26T08:26:45.404Z,20.25
2023-03-26T08:29:23.602Z,16.20
2023-03-26T08:31:54.638Z,19.60
2023-03-26T08:34:21.397Z,21.15
2023-03-26T08:36:54.126Z,20.77
2023-03-26T08:39:28.552Z,22.98
2023-03-26T08:42:13.899Z,18.63
2023-03-26T08:45:17.959Z,15.85
2023-03-26T08:48:24.375Z,17.10
2023-03-26T08:51:03.082Z,20.30
2023-03-26T08:54:09.695Z,16.58
2023-03-26T08:56:43.357Z,18.83
2023-03-26T08:59:52.997Z,21.55
2023-03-26T09:02:55.211Z,19.60
2023-03-26T09:05:46.887Z,18.13
2023-03-26T09:08:54.164Z,18.33
2023-03-26T09:14:46.330Z,17.80
2023-03-26T09:17:22.177Z,17.67
2023-03-26T09:20:16.563Z,15.75
2023-03-26T09:23:16.162Z,13.55
2023-03-26T09:26:10.220Z,9.93
2023-03-26T09:29:21.152Z,11.13
2023-03-26T09:32:11.185Z,12.45
2023-03-26T09:35:04.678Z,13.15
2023-03-26T09:38:00.276Z,14.10
2023-03-26T09:40:42.940Z,16.20
2023-03-26T09:43:35.698Z,16.50
2023-03-26T09:46:29.348Z,18.17
2023-03-26T09:49:15.989Z,10.98
2023-03-26T09:52:02.553Z,18.75
2023-03-26T09:54:49.647Z,17.30
2023-03-26T10:01:01.617Z,17.10
2023-03-26T10:04:09.224Z,19.83
2023-03-26T10:06:41.919Z,13.52
2023-03-26T10:09:36.386Z,15.00
2023-03-26T10:12:34.984Z,12.00
2023-03-26T10:15:36.330Z,11.65
2023-03-26T10:18:38.892Z,15.23
2023-03-26T10:21:10.202Z,8.63
2023-03-26T10:23:37.422Z,12.15
2023-03-26T10:27:09.074Z,11.88
2023-03-26T10:30:14.175Z,13.43
2023-03-26T10:33:25.596Z,12.65
2023-03-26T10:36:39.824Z,10.95
2023-03-26T10:39:42.417Z,12.48
2023-03-26T10:42:47.060Z,10.35
2023-03-26T10:48:53.361Z,11.40
2023-03-26T10:54:54.539Z,10.32
2023-03-26T10:57:48.186Z,11.32
2023-03-26T11:00:26.336Z,7.00
2023-03-26T11:03:34.532Z,9.02
2023-03-26T11:06:27.473Z,13.65
2023-03-26T11:09:21.826Z,8.52
2023-03-26T11:12:28.134Z,9.98
2023-03-26T11:15:14.742Z,6.47
2023-03-26T11:17:59.548Z,9.27
2023-03-26T11:21:19.794Z,7.68
2023-03-26T11:24:10.246Z,14.35
2023-03-26T11:27:15.230Z,9.57
2023-03-26T11:30:38.399Z,15.07
2023-03-26T11:33:10.898Z,10.60
2023-03-26T11:35:44.899Z,7.75
2023-03-26T11:38:39.556Z,9.20
2023-03-26T11:41:34.275Z,8.93
2023-03-26T11:44:08.906Z,12.23
2023-03-26T11:46:45.240Z,7.72
2023-03-26T11:49:18.917Z,5.45
2023-03-26T11:51:57.975Z,7.97
2023-03-26T11:54:42.337Z,4.95
2023-03-26T11:57:32.800Z,7.38
2023-03-26T12:00:32.847Z,8.27
2023-03-26T12:03:02.703Z,7.50
2023-03-26T12:05:29.478Z,6.20
2023-03-26T12:07:57.620Z,5.95
2023-03-26T12:10:34.267Z,7.85
2023-03-26T12:13:06.421Z,10.50
2023-03-26T12:15:33.232Z,7.07
2023-03-26T12:18:26.068Z,7.25
2023-03-26T12:21:19.467Z,10.80
2023-03-26T12:23:59.935Z,16.23
2023-03-26T12:26:52.265Z,9.63
2023-03-26T12:29:19.189Z,8.00
2023-03-26T12:32:27.417Z,10.32
2023-03-26T12:35:08.218Z,11.15
2023-03-26T12:37:43.450Z,6.57
2023-03-26T12:40:25.455Z,5.65
2023-03-26T12:45:46.305Z,6.20
2023-03-26T12:48:44.514Z,6.35
2023-03-26T12:51:53.606Z,5.18
2023-03-26T12:54:51.661Z,7.63
2023-03-26T12:57:39.697Z,5.80
2023-03-26T13:00:43.312Z,6.97
2023-03-26T13:03:31.193Z,8.65
2023-03-26T13:06:12.717Z,8.70
2023-03-26T13:09:15.519Z,4.72
2023-03-26T13:11:53.828Z,7.90
2023-03-26T13:14:33.558Z,7.82
2023-03-26T13:17:21.779Z,10.05
2023-03-26T13:20:27.079Z,7.50
2023-03-26T13:23:08.312Z,8.50
2023-03-26T13:25:40.871Z,6.68
2023-03-26T13:28:18.669Z,8.52
2023-03-26T13:33:40.419Z,5.63
2023-03-26T13:36:51.596Z,5.80
2023-03-26T13:39:38.437Z,8.05
2023-03-26T13:42:19.482Z,6.20
2023-03-26T13:45:11.697Z,8.25
2023-03-26T13:47:46.470Z,7.28
2023-03-26T13:53:33.932Z,5.25
2023-03-26T13:56:04.382Z,6.13
2023-03-26T13:58:48.109Z,5.20
2023-03-26T14:01:34.581Z,5.57
2023-03-26T14:04:35.315Z,5.65
2023-03-26T14:07:50.165Z,7.05
2023-03-26T14:10:28.759Z,5.18
2023-03-26T14:13:13.624Z,7.70
2023-03-26T14:16:02.361Z,5.32
2023-03-26T14:18:55.272Z,5.07
2023-03-26T14:21:38.588Z,8.75
2023-03-26T14:24:28.786Z,7.32
2023-03-26T14:30:49.075Z,5.18
2023-03-26T14:33:42.308Z,7.50
2023-03-26T14:36:16.425Z,4.82
2023-03-26T14:39:17.993Z,8.02
2023-03-26T14:41:52.936Z,11.63
2023-03-26T14:44:53.448Z,6.65
2023-03-26T14:47:26.848Z,6.20
2023-03-26T14:50:21.577Z,6.60
2023-03-26T14:53:08.985Z,7.82
2023-03-26T14:55:56.229Z,6.65
2023-03-26T14:59:06.052Z,8.23
2023-03-26T15:01:59.981Z,4.45
2023-03-26T15:05:19.149Z,6.13
2023-03-26T15:08:35.558Z,6.00
2023-03-26T15:11:14.554Z,8.05
2023-03-26T15:13:59.964Z,5.38
2023-03-26T15:17:05.319Z,20.60
2023-03-26T15:20:11.543Z,3.22
2023-03-26T15:23:05.785Z,7.43
2023-03-26T15:25:47.415Z,6.38
2023-03-26T15:28:36.104Z,5.13
2023-03-26T15:31:28.360Z,6.35
2023-03-26T15:37:15.668Z,3.90
2023-03-26T15:40:19.644Z,5.05
2023-03-26T15:42:58.272Z,5.63
2023-03-26T15:45:33.995Z,7.43
2023-03-26T15:48:11.922Z,6.97
2023-03-26T15:50:56.508Z,8.40
2023-03-26T15:53:47.600Z,7.40
2023-03-26T15:56:31.341Z,3.67
2023-03-26T15:59:37.596Z,7.20
2023-03-26T16:05:32.444Z,9.13
2023-03-26T16:08:20.754Z,5.20
2023-03-26T16:11:03.827Z,7.07
2023-03-26T16:13:42.446Z,5.70
2023-03-26T16:16:14.853Z,7.32
2023-03-26T16:18:46.792Z,9.38
2023-03-26T16:24:19.688Z,5.32
2023-03-26T16:26:52.553Z,16.55
2023-03-26T16:29:28.306Z,5.50
2023-03-26T16:32:13.835Z,11.63
2023-03-26T16:35:25.902Z,7.78
2023-03-26T16:38:15.535Z,8.07
2023-03-26T16:41:15.119Z,8.73
2023-03-26T16:44:30.257Z,6.82
2023-03-26T16:47:25.978Z,8.88
2023-03-26T16:50:08.486Z,6.85
2023-03-26T16:52:53.482Z,8.40
2023-03-26T16:55:49.861Z,6.05
2023-03-26T16:58:56.686Z,7.90
2023-03-26T17:01:45.122Z,8.73
2023-03-26T17:04:26.365Z,6.55
2023-03-26T17:07:38.722Z,8.00
2023-03-26T17:10:29.142Z,8.13
2023-03-26T17:13:00.680Z,7.10
2023-03-26T17:15:30.359Z,7.00
2023-03-26T17:18:21.851Z,10.85
2023-03-26T17:21:15.549Z,26.77
2023-03-26T17:24:23.653Z,11.27
2023-03-26T17:27:24.324Z,8.25
2023-03-26T17:30:25.217Z,14.27
2023-03-26T17:33:17.655Z,12.13
2023-03-26T17:35:55.026Z,9.90
2023-03-26T17:38:27.345Z,8.40
2023-03-26T17:40:59.614Z,7.97
2023-03-26T17:43:50.243Z,7.72
2023-03-26T17:46:48.522Z,10.15
2023-03-26T17:49:21.248Z,12.77
2023-03-26T17:51:57.948Z,12.00
2023-03-26T17:54:36.037Z,13.68
2023-03-26T17:57:17.685Z,14.35
2023-03-26T17:59:49.584Z,12.05
2023-03-26T18:02:21.230Z,15.38
2023-03-26T18:04:51.877Z,20.52
2023-03-26T18:07:55.955Z,9.35
2023-03-26T18:11:15.633Z,7.50
2023-03-26T18:14:13.262Z,7.60
2023-03-26T18:20:02.819Z,5.50
2023-03-26T18:22:30.682Z,3.97
2023-03-26T18:25:00.843Z,5.10
2023-03-26T18:27:43.458Z,3.92
2023-03-26T18:30:21.547Z,7.78
2023-03-26T18:32:53.919Z,5.47
2023-03-26T18:35:24.940Z,5.70
2023-03-26T18:37:56.346Z,3.78
2023-03-26T18:40:32.450Z,4.72
2023-03-26T18:43:00.089Z,5.22
2023-03-26T18:45:44.367Z,3.85
2023-03-26T18:48:24.165Z,4.57
2023-03-26T18:51:06.940Z,6.10
2023-03-26T18:53:46.689Z,4.05
2023-03-26T18:56:43.861Z,6.72
2023-03-26T18:59:35.760Z,5.90
2023-03-26T19:02:14.303Z,5.88
2023-03-26T19:04:46.951Z,5.78
2023-03-26T19:07:25.898Z,4.43
2023-03-26T19:09:57.089Z,5.57
2023-03-26T19:12:29.591Z,5.10
2023-03-26T19:15:28.065Z,4.60
2023-03-26T19:18:05.710Z,4.70
2023-03-26T19:20:44.361Z,4.05
2023-03-26T19:23:26.210Z,3.67
2023-03-26T19:25:56.331Z,2.38
2023-03-26T19:28:39.393Z,4.75
2023-03-26T19:31:15.456Z,3.75
2023-03-26T19:33:44.161Z,2.97
2023-03-26T19:36:24.974Z,3.85
2023-03-26T19:38:54.607Z,3.72
2023-03-26T19:41:55.637Z,6.53
2023-03-26T19:44:39.083Z,3.88
2023-03-26T19:47:13.193Z,7.50
2023-03-26T19:50:02.602Z,5.22
2023-03-26T19:52:40.448Z,4.18
2023-03-26T19:55:29.429Z,4.72
2023-03-26T19:57:58.957Z,4.38
2023-03-26T20:00:31.206Z,2.78
2023-03-26T20:03:00.897Z,2.55
2023-03-26T20:05:42.134Z,2.63
2023-03-26T20:08:19.201Z,2.30
2023-03-26T20:10:48.224Z,3.63
2023-03-26T20:16:06.547Z,2.03
2023-03-26T20:18:34.580Z,2.05
2023-03-26T20:21:01.448Z,1.92
2023-03-26T20:23:29.562Z,3.08
2023-03-26T20:26:00.685Z,1.30
2023-03-26T20:28:28.209Z,1.73
2023-03-26T20:31:02.431Z,2.17
2023-03-26T20:33:33.516Z,3.42
2023-03-26T20:36:03.127Z,1.67
2023-03-26T20:38:39.168Z,1.80
2023-03-26T20:41:12.652Z,3.20
2023-03-26T20:43:39.697Z,4.40
2023-03-26T20:46:23.997Z,2.20
2023-03-26T20:49:11.304Z,3.05
2023-03-26T20:51:47.020Z,3.45
2023-03-26T20:54:17.025Z,2.30
2023-03-26T20:56:54.013Z,3.40
2023-03-26T20:59:27.258Z,2.33
2023-03-26T21:02:00.318Z,2.83
2023-03-26T21:04:28.604Z,4.90
2023-03-26T21:07:18.099Z,4.05
2023-03-26T21:09:50.049Z,2.20
2023-03-26T21:12:28.075Z,2.57
2023-03-26T21:14:56.042Z,5.05
2023-03-26T21:20:08.656Z,6.88
2023-03-26T21:22:38.466Z,2.30
2023-03-26T21:25:21.183Z,3.15
2023-03-26T21:28:16.924Z,3.05
2023-03-26T21:30:48.281Z,2.75
2023-03-26T21:33:14.987Z,2.55
2023-03-26T21:35:59.653Z,2.92
2023-03-26T21:38:29.477Z,3.20
2023-03-26T21:40:59.113Z,2.85
2023-03-26T21:43:30.460Z,3.88
2023-03-26T21:46:13.802Z,4.30
2023-03-26T21:48:47.590Z,2.70
2023-03-26T21:51:18.224Z,2.60
2023-03-26T21:53:51.522Z,3.65
2023-03-26T21:59:57.640Z,5.35
2023-03-26T22:03:01.209Z,2.90
2023-03-26T22:06:15.612Z,3.05
2023-03-26T22:08:46.148Z,2.90
2023-03-26T22:11:34.973Z,4.18
2023-03-26T22:14:22.390Z,2.80
2023-03-26T22:16:55.351Z,2.60
2023-03-26T22:19:23.854Z,3.90
2023-03-26T22:21:50.644Z,2.63
2023-03-26T22:24:20.300Z,3.00
2023-03-26T22:26:51.038Z,2.78
2023-03-26T22:29:19.287Z,2.95
2023-03-26T22:31:50.293Z,2.40
2023-03-26T22:34:29.324Z,2.42
2023-03-26T22:36:56.072Z,3.40
2023-03-26T22:39:25.170Z,2.10
2023-03-26T22:41:52.187Z,3.05
2023-03-26T22:44:20.584Z,3.05
2023-03-26T22:46:53.124Z,3.92
2023-03-26T22:49:22.577Z,4.88
2023-03-26T22:51:50.901Z,4.38
2023-03-26T22:54:26.650Z,2.92
2023-03-26T22:57:02.259Z,2.55
2023-03-26T23:02:19.673Z,2.65
2023-03-26T23:04:46.727Z,3.13
2023-03-26T23:07:16.492Z,3.38
2023-03-26T23:09:43.346Z,2.72
2023-03-26T23:12:15.583Z,3.22
2023-03-26T23:14:42.679Z,7.53
2023-03-26T23:17:19.187Z,4.55
2023-03-26T23:19:46.067Z,3.45
2023-03-26T23:22:20.144Z,4.70
2023-03-26T23:24:46.877Z,8.93
2023-03-26T23:27:13.589Z,4.93
2023-03-26T23:29:44.780Z,3.65
2023-03-26T23:32:29.264Z,5.63
2023-03-26T23:35:05.600Z,6.70
2023-03-26T23:37:34.591Z,5.30
2023-03-26T23:40:01.360Z,3.72
2023-03-26T23:42:36.379Z,4.65
2023-03-26T23:45:10.488Z,2.88
2023-03-26T23:47:46.268Z,3.70
2023-03-26T23:50:15.851Z,4.50
2023-03-26T23:53:03.714Z,3.08
2023-03-26T23:55:37.941Z,5.25
2023-03-26T23:58:04.652Z,2.67
